sensor_id;sensor_type;location;lat;lon;timestamp;pressure;altitude;pressure_sealevel;temperature;humidity
77583;BME280;66726;52.388;9.986;2024-03-23T00:52:20;100109.41;;;7.82;100.00
77583;BME280;66726;52.388;9.986;2024-03-23T00:54:48;100098.75;;;7.82;100.00
77583;BME280;66726;52.388;9.986;2024-03-23T00:57:14;100098.44;;;7.85;100.00
77583;BME280;66726;52.388;9.986;2024-03-23T00:59:41;100100.13;;;7.86;100.00
77583;BME280;66726;52.388;9.986;2024-03-23T01:02:07;100096.47;;;7.87;100.00
77583;BME280;66726;52.388;9.986;2024-03-23T01:04:34;100088.78;;;7.84;100.00
77583;BME280;66726;52.388;9.986;2024-03-23T01:07:01;100091.47;;;7.84;100.00
77583;BME280;66726;52.388;9.986;2024-03-23T01:09:29;100084.78;;;7.80;100.00
77583;BME280;66726;52.388;9.986;2024-03-23T01:12:01;100082.09;;;7.80;100.00
77583;BME280;66726;52.388;9.986;2024-03-23T01:14:28;100076.25;;;7.76;100.00
77583;BME280;66726;52.388;9.986;2024-03-23T01:16:54;100079.06;;;7.75;100.00
77583;BME280;66726;52.388;9.986;2024-03-23T01:19:22;100071.38;;;7.72;100.00
77583;BME280;66726;52.388;9.986;2024-03-23T01:21:49;100068.53;;;7.65;100.00
77583;BME280;66726;52.388;9.986;2024-03-23T01:24:16;100077.16;;;7.59;100.00
77583;BME280;66726;52.388;9.986;2024-03-23T01:26:43;100061.69;;;7.62;100.00
77583;BME280;66726;52.388;9.986;2024-03-23T01:29:11;100066.03;;;7.63;100.00
77583;BME280;66726;52.388;9.986;2024-03-23T01:31:37;100059.81;;;7.55;100.00
77583;BME280;66726;52.388;9.986;2024-03-23T01:34:04;100059.59;;;7.48;100.00
77583;BME280;66726;52.388;9.986;2024-03-23T01:36:30;100050.63;;;7.49;100.00
77583;BME280;66726;52.388;9.986;2024-03-23T01:38:57;100051.16;;;7.53;100.00
77583;BME280;66726;52.388;9.986;2024-03-23T01:41:24;100047.47;;;7.54;100.00
77583;BME280;66726;52.388;9.986;2024-03-23T01:43:55;100049.09;;;7.47;100.00
77583;BME280;66726;52.388;9.986;2024-03-23T01:46:21;100039.25;;;7.39;100.00
77583;BME280;66726;52.388;9.986;2024-03-23T01:48:49;100032.25;;;7.38;100.00
77583;BME280;66726;52.388;9.986;2024-03-23T01:51:16;100032.88;;;7.32;100.00
77583;BME280;66726;52.388;9.986;2024-03-23T01:53:44;100026.84;;;7.30;100.00
77583;BME280;66726;52.388;9.986;2024-03-23T01:56:10;100032.88;;;7.32;100.00
77583;BME280;66726;52.388;9.986;2024-03-23T01:58:39;100030.88;;;7.34;100.00
77583;BME280;66726;52.388;9.986;2024-03-23T02:01:06;100031.88;;;7.33;100.00
77583;BME280;66726;52.388;9.986;2024-03-23T02:03:34;100024.56;;;7.35;100.00
77583;BME280;66726;52.388;9.986;2024-03-23T02:06:00;100015.59;;;7.36;100.00
77583;BME280;66726;52.388;9.986;2024-03-23T02:08:27;100007.22;;;7.31;100.00
77583;BME280;66726;52.388;9.986;2024-03-23T02:10:54;100018.53;;;7.25;100.00
77583;BME280;66726;52.388;9.986;2024-03-23T02:13:21;100010.53;;;7.25;100.00
77583;BME280;66726;52.388;9.986;2024-03-23T02:15:48;100000.41;;;7.29;100.00
77583;BME280;66726;52.388;9.986;2024-03-23T02:18:16;100001.25;;;7.29;100.00
77583;BME280;66726;52.388;9.986;2024-03-23T02:20:42;99997.56;;;7.30;100.00
77583;BME280;66726;52.388;9.986;2024-03-23T02:23:15;100003.22;;;7.27;100.00
77583;BME280;66726;52.388;9.986;2024-03-23T02:25:42;100008.41;;;7.29;100.00
77583;BME280;66726;52.388;9.986;2024-03-23T02:28:09;100001.91;;;7.31;100.00
77583;BME280;66726;52.388;9.986;2024-03-23T02:30:36;99999.25;;;7.31;100.00
77583;BME280;66726;52.388;9.986;2024-03-23T02:33:03;99993.94;;;7.31;100.00
77583;BME280;66726;52.388;9.986;2024-03-23T02:35:30;99998.59;;;7.29;100.00
77583;BME280;66726;52.388;9.986;2024-03-23T02:37:57;99993.94;;;7.31;100.00
77583;BME280;66726;52.388;9.986;2024-03-23T02:40:25;99985.28;;;7.29;100.00
77583;BME280;66726;52.388;9.986;2024-03-23T02:42:52;99977.28;;;7.29;100.00
77583;BME280;66726;52.388;9.986;2024-03-23T02:45:19;99976.28;;;7.30;100.00
77583;BME280;66726;52.388;9.986;2024-03-23T02:47:46;99973.47;;;7.32;100.00
77583;BME280;66726;52.388;9.986;2024-03-23T02:50:12;99978.28;;;7.28;100.00
77583;BME280;66726;52.388;9.986;2024-03-23T02:52:41;99978.59;;;7.25;100.00
77583;BME280;66726;52.388;9.986;2024-03-23T02:55:08;99978.41;;;7.27;100.00
77583;BME280;66726;52.388;9.986;2024-03-23T02:57:36;99964.25;;;7.26;100.00
77583;BME280;66726;52.388;9.986;2024-03-23T03:00:04;99955.28;;;7.27;100.00
77583;BME280;66726;52.388;9.986;2024-03-23T03:02:32;99956.91;;;7.20;100.00
77583;BME280;66726;52.388;9.986;2024-03-23T03:04:58;99954.88;;;7.14;100.00
77583;BME280;66726;52.388;9.986;2024-03-23T03:07:25;99959.69;;;7.10;100.00
77583;BME280;66726;52.388;9.986;2024-03-23T03:09:52;99955.00;;;7.04;100.00
77583;BME280;66726;52.388;9.986;2024-03-23T03:12:19;99954.50;;;7.09;100.00
77583;BME280;66726;52.388;9.986;2024-03-23T03:14:46;99947.88;;;7.13;100.00
77583;BME280;66726;52.388;9.986;2024-03-23T03:17:14;99952.16;;;7.06;100.00
77583;BME280;66726;52.388;9.986;2024-03-23T03:19:40;99941.84;;;7.03;100.00
77583;BME280;66726;52.388;9.986;2024-03-23T03:22:08;99936.00;;;6.99;100.00
77583;BME280;66726;52.388;9.986;2024-03-23T03:24:34;99940.97;;;6.94;100.00
77583;BME280;66726;52.388;9.986;2024-03-23T03:27:01;99944.16;;;6.98;100.00
77583;BME280;66726;52.388;9.986;2024-03-23T03:29:29;99942.47;;;6.97;100.00
77583;BME280;66726;52.388;9.986;2024-03-23T03:32:03;99938.50;;;7.01;100.00
77583;BME280;66726;52.388;9.986;2024-03-23T03:34:30;99930.84;;;6.98;100.00
77583;BME280;66726;52.388;9.986;2024-03-23T03:36:57;99927.47;;;6.96;100.00
77583;BME280;66726;52.388;9.986;2024-03-23T03:39:24;99923.84;;;6.97;100.00
77583;BME280;66726;52.388;9.986;2024-03-23T03:41:52;99929.81;;;6.99;100.00
77583;BME280;66726;52.388;9.986;2024-03-23T03:44:18;99930.31;;;6.94;100.00
77583;BME280;66726;52.388;9.986;2024-03-23T03:46:45;99937.91;;;6.89;100.00
77583;BME280;66726;52.388;9.986;2024-03-23T03:49:14;99933.81;;;6.95;100.00
77583;BME280;66726;52.388;9.986;2024-03-23T03:51:41;99931.31;;;6.93;100.00
77583;BME280;66726;52.388;9.986;2024-03-23T03:54:07;99927.13;;;6.91;100.00
77583;BME280;66726;52.388;9.986;2024-03-23T03:56:34;99931.09;;;6.87;100.00
77583;BME280;66726;52.388;9.986;2024-03-23T03:59:01;99930.78;;;6.90;100.00
77583;BME280;66726;52.388;9.986;2024-03-23T04:01:28;99928.13;;;6.90;100.00
77583;BME280;66726;52.388;9.986;2024-03-23T04:03:54;99932.78;;;6.88;100.00
77583;BME280;66726;52.388;9.986;2024-03-23T04:06:22;99930.78;;;6.90;100.00
77583;BME280;66726;52.388;9.986;2024-03-23T04:08:49;99935.56;;;6.86;100.00
77583;BME280;66726;52.388;9.986;2024-03-23T04:11:16;99928.78;;;6.66;100.00
77583;BME280;66726;52.388;9.986;2024-03-23T04:13:43;99923.91;;;6.61;100.00
77583;BME280;66726;52.388;9.986;2024-03-23T04:16:10;99925.75;;;6.61;100.00
77583;BME280;66726;52.388;9.986;2024-03-23T04:18:37;99921.25;;;6.61;100.00
77583;BME280;66726;52.388;9.986;2024-03-23T04:21:04;99928.78;;;6.66;100.00
77583;BME280;66726;52.388;9.986;2024-03-23T04:23:31;99925.34;;;6.74;100.00
77583;BME280;66726;52.388;9.986;2024-03-23T04:26:03;99922.53;;;6.75;100.00
77583;BME280;66726;52.388;9.986;2024-03-23T04:28:31;99916.88;;;6.78;100.00
77583;BME280;66726;52.388;9.986;2024-03-23T04:30:58;99923.38;;;6.76;100.00
77583;BME280;66726;52.388;9.986;2024-03-23T04:33:29;99908.09;;;6.78;100.00
77583;BME280;66726;52.388;9.986;2024-03-23T04:35:56;99908.25;;;6.76;100.00
77583;BME280;66726;52.388;9.986;2024-03-23T04:38:22;99917.19;;;6.75;100.00
77583;BME280;66726;52.388;9.986;2024-03-23T04:40:55;99907.06;;;6.71;100.00
77583;BME280;66726;52.388;9.986;2024-03-23T04:43:23;99889.41;;;6.70;100.00
77583;BME280;66726;52.388;9.986;2024-03-23T04:45:50;99897.00;;;6.64;100.00
77583;BME280;66726;52.388;9.986;2024-03-23T04:48:20;99882.38;;;6.60;100.00
77583;BME280;66726;52.388;9.986;2024-03-23T04:50:48;99885.06;;;6.69;100.00
77583;BME280;66726;52.388;9.986;2024-03-23T04:53:16;99891.41;;;6.68;100.00
77583;BME280;66726;52.388;9.986;2024-03-23T04:55:44;99878.88;;;6.60;100.00
77583;BME280;66726;52.388;9.986;2024-03-23T04:58:12;99881.53;;;6.60;100.00
77583;BME280;66726;52.388;9.986;2024-03-23T05:00:38;99879.03;;;6.58;100.00
77583;BME280;66726;52.388;9.986;2024-03-23T05:03:06;99874.75;;;6.66;100.00
77583;BME280;66726;52.388;9.986;2024-03-23T05:05:32;99870.28;;;6.66;100.00
77583;BME280;66726;52.388;9.986;2024-03-23T05:07:59;99871.47;;;6.72;100.00
77583;BME280;66726;52.388;9.986;2024-03-23T05:10:25;99874.75;;;6.66;100.00
77583;BME280;66726;52.388;9.986;2024-03-23T05:12:53;99871.09;;;6.67;100.00
77583;BME280;66726;52.388;9.986;2024-03-23T05:15:20;99878.09;;;6.68;100.00
77583;BME280;66726;52.388;9.986;2024-03-23T05:17:48;99882.16;;;6.54;100.00
77583;BME280;66726;52.388;9.986;2024-03-23T05:20:14;99881.66;;;6.50;100.00
77583;BME280;66726;52.388;9.986;2024-03-23T05:22:42;99874.13;;;6.46;100.00
77583;BME280;66726;52.388;9.986;2024-03-23T05:25:08;99871.69;;;6.35;100.00
77583;BME280;66726;52.388;9.986;2024-03-23T05:27:36;99876.88;;;6.36;100.00
77583;BME280;66726;52.388;9.986;2024-03-23T05:30:02;99876.19;;;6.34;100.00
77583;BME280;66726;52.388;9.986;2024-03-23T05:32:31;99863.50;;;6.28;100.00
77583;BME280;66726;52.388;9.986;2024-03-23T05:34:58;99865.84;;;6.31;100.00
77583;BME280;66726;52.388;9.986;2024-03-23T05:37:25;99872.00;;;6.32;98.88
77583;BME280;66726;52.388;9.986;2024-03-23T05:39:51;99873.16;;;6.29;97.22
77583;BME280;66726;52.388;9.986;2024-03-23T05:42:19;99877.13;;;6.25;95.68
77583;BME280;66726;52.388;9.986;2024-03-23T05:44:45;99877.47;;;6.30;100.00
77583;BME280;66726;52.388;9.986;2024-03-23T05:47:13;99893.19;;;6.24;97.90
77583;BME280;66726;52.388;9.986;2024-03-23T05:49:42;99885.53;;;6.21;94.35
77583;BME280;66726;52.388;9.986;2024-03-23T05:52:09;99876.38;;;6.15;93.52
77583;BME280;66726;52.388;9.986;2024-03-23T05:54:36;99873.63;;;6.07;91.08
77583;BME280;66726;52.388;9.986;2024-03-23T05:57:03;99871.06;;;6.15;93.90
77583;BME280;66726;52.388;9.986;2024-03-23T05:59:30;99863.44;;;6.20;94.43
77583;BME280;66726;52.388;9.986;2024-03-23T06:01:57;99861.84;;;6.27;96.71
77583;BME280;66726;52.388;9.986;2024-03-23T06:04:23;99863.38;;;6.30;97.20
77583;BME280;66726;52.388;9.986;2024-03-23T06:06:52;99861.69;;;6.29;100.00
77583;BME280;66726;52.388;9.986;2024-03-23T06:09:18;99853.25;;;6.33;100.00
77583;BME280;66726;52.388;9.986;2024-03-23T06:11:46;99849.38;;;6.28;100.00
77583;BME280;66726;52.388;9.986;2024-03-23T06:14:12;99843.09;;;6.29;100.00
77583;BME280;66726;52.388;9.986;2024-03-23T06:16:39;99839.13;;;6.33;100.00
77583;BME280;66726;52.388;9.986;2024-03-23T06:19:06;99841.63;;;6.34;100.00
77583;BME280;66726;52.388;9.986;2024-03-23T06:21:33;99838.97;;;6.34;100.00
77583;BME280;66726;52.388;9.986;2024-03-23T06:24:01;99845.13;;;6.35;100.00
77583;BME280;66726;52.388;9.986;2024-03-23T06:26:28;99840.94;;;6.32;100.00
77583;BME280;66726;52.388;9.986;2024-03-23T06:28:54;99837.91;;;6.27;100.00
77583;BME280;66726;52.388;9.986;2024-03-23T06:31:22;99843.53;;;6.24;100.00
77583;BME280;66726;52.388;9.986;2024-03-23T06:33:48;99834.91;;;6.22;100.00
77583;BME280;66726;52.388;9.986;2024-03-23T06:36:15;99846.16;;;6.16;100.00
77583;BME280;66726;52.388;9.986;2024-03-23T06:38:41;99838.00;;;6.18;100.00
77583;BME280;66726;52.388;9.986;2024-03-23T06:41:10;99842.19;;;6.20;100.00
77583;BME280;66726;52.388;9.986;2024-03-23T06:43:37;99847.22;;;6.23;100.00
77583;BME280;66726;52.388;9.986;2024-03-23T06:46:05;99843.53;;;6.24;100.00
77583;BME280;66726;52.388;9.986;2024-03-23T06:48:31;99846.91;;;6.26;100.00
77583;BME280;66726;52.388;9.986;2024-03-23T06:50:59;99846.06;;;6.26;100.00
77583;BME280;66726;52.388;9.986;2024-03-23T06:53:25;99854.47;;;6.21;100.00
77583;BME280;66726;52.388;9.986;2024-03-23T06:55:53;99856.63;;;6.18;100.00
77583;BME280;66726;52.388;9.986;2024-03-23T06:58:23;99867.25;;;6.18;100.00
77583;BME280;66726;52.388;9.986;2024-03-23T07:00:51;99849.78;;;6.15;100.00
77583;BME280;66726;52.388;9.986;2024-03-23T07:03:17;99846.16;;;6.16;100.00
77583;BME280;66726;52.388;9.986;2024-03-23T07:05:45;99846.81;;;6.18;100.00
77583;BME280;66726;52.388;9.986;2024-03-23T07:08:12;99850.78;;;6.14;100.00
77583;BME280;66726;52.388;9.986;2024-03-23T07:10:44;99860.50;;;6.05;100.00
77583;BME280;66726;52.388;9.986;2024-03-23T07:13:10;99856.56;;;6.09;100.00
77583;BME280;66726;52.388;9.986;2024-03-23T07:15:39;99864.06;;;6.14;100.00
77583;BME280;66726;52.388;9.986;2024-03-23T07:18:05;99859.59;;;6.15;100.00
77583;BME280;66726;52.388;9.986;2024-03-23T07:20:33;99862.38;;;6.13;100.00
77583;BME280;66726;52.388;9.986;2024-03-23T07:22:59;99848.41;;;6.11;100.00
77583;BME280;66726;52.388;9.986;2024-03-23T07:25:26;99853.38;;;6.06;100.00
77583;BME280;66726;52.388;9.986;2024-03-23T07:27:55;99852.00;;;6.02;100.00
77583;BME280;66726;52.388;9.986;2024-03-23T07:30:22;99852.22;;;6.08;100.00
77583;BME280;66726;52.388;9.986;2024-03-23T07:32:49;99853.44;;;6.14;100.00
77583;BME280;66726;52.388;9.986;2024-03-23T07:35:17;99856.78;;;6.16;100.00
77583;BME280;66726;52.388;9.986;2024-03-23T07:37:43;99865.75;;;6.15;100.00
77583;BME280;66726;52.388;9.986;2024-03-23T07:40:11;99860.72;;;6.12;100.00
77583;BME280;66726;52.388;9.986;2024-03-23T07:42:38;99853.28;;;6.16;100.00
77583;BME280;66726;52.388;9.986;2024-03-23T07:45:06;99852.59;;;6.13;100.00
77583;BME280;66726;52.388;9.986;2024-03-23T07:47:32;99852.59;;;6.13;100.00
77583;BME280;66726;52.388;9.986;2024-03-23T07:50:01;99858.13;;;6.20;100.00
77583;BME280;66726;52.388;9.986;2024-03-23T07:52:28;99851.69;;;6.23;100.00
77583;BME280;66726;52.388;9.986;2024-03-23T07:54:56;99847.88;;;6.25;100.00
77583;BME280;66726;52.388;9.986;2024-03-23T07:57:22;99848.22;;;6.30;100.00
77583;BME280;66726;52.388;9.986;2024-03-23T07:59:49;99852.56;;;6.31;100.00
77583;BME280;66726;52.388;9.986;2024-03-23T08:02:15;99842.63;;;6.33;100.00
77583;BME280;66726;52.388;9.986;2024-03-23T08:04:42;99846.78;;;6.36;100.00
77583;BME280;66726;52.388;9.986;2024-03-23T08:07:11;99852.94;;;6.36;100.00
77583;BME280;66726;52.388;9.986;2024-03-23T08:09:37;99850.97;;;6.38;100.00
77583;BME280;66726;52.388;9.986;2024-03-23T08:12:05;99849.97;;;6.39;100.00
77583;BME280;66726;52.388;9.986;2024-03-23T08:14:31;99859.63;;;6.40;100.00
77583;BME280;66726;52.388;9.986;2024-03-23T08:16:59;99852.63;;;6.39;100.00
77583;BME280;66726;52.388;9.986;2024-03-23T08:19:25;99852.31;;;6.42;100.00
77583;BME280;66726;52.388;9.986;2024-03-23T08:21:52;99851.19;;;6.45;100.00
77583;BME280;66726;52.388;9.986;2024-03-23T08:24:21;99842.66;;;6.41;100.00
77583;BME280;66726;52.388;9.986;2024-03-23T08:26:49;99845.31;;;6.41;100.00
77583;BME280;66726;52.388;9.986;2024-03-23T08:29:15;99835.72;;;6.40;100.00
77583;BME280;66726;52.388;9.986;2024-03-23T08:31:42;99836.84;;;6.38;100.00
77583;BME280;66726;52.388;9.986;2024-03-23T08:34:08;99849.97;;;6.39;100.00
77583;BME280;66726;52.388;9.986;2024-03-23T08:36:35;99845.31;;;6.41;100.00
77583;BME280;66726;52.388;9.986;2024-03-23T08:39:02;99845.00;;;6.44;100.00
77583;BME280;66726;52.388;9.986;2024-03-23T08:41:30;99845.19;;;6.43;100.00
77583;BME280;66726;52.388;9.986;2024-03-23T08:43:56;99853.69;;;6.46;100.00
77583;BME280;66726;52.388;9.986;2024-03-23T08:46:24;99848.06;;;6.49;100.00
77583;BME280;66726;52.388;9.986;2024-03-23T08:48:50;99848.63;;;6.61;100.00
77583;BME280;66726;52.388;9.986;2024-03-23T08:51:18;99849.84;;;6.75;100.00
77583;BME280;66726;52.388;9.986;2024-03-23T08:53:46;99857.59;;;6.86;100.00
77583;BME280;66726;52.388;9.986;2024-03-23T08:56:12;99858.63;;;6.93;100.00
77583;BME280;66726;52.388;9.986;2024-03-23T08:58:40;99852.25;;;6.86;100.00
77583;BME280;66726;52.388;9.986;2024-03-23T09:01:09;99848.16;;;6.91;100.00
77583;BME280;66726;52.388;9.986;2024-03-23T09:03:37;99854.28;;;6.92;100.00
77583;BME280;66726;52.388;9.986;2024-03-23T09:06:07;99857.97;;;6.99;100.00
77583;BME280;66726;52.388;9.986;2024-03-23T09:08:34;99860.03;;;7.05;100.00
77583;BME280;66726;52.388;9.986;2024-03-23T09:11:04;99853.16;;;7.02;100.00
77583;BME280;66726;52.388;9.986;2024-03-23T09:14:26;99863.41;;;7.23;100.00
77583;BME280;66726;52.388;9.986;2024-03-23T09:16:53;99857.16;;;7.32;100.00
77583;BME280;66726;52.388;9.986;2024-03-23T09:21:13;99853.50;;;7.41;99.12
77583;BME280;66726;52.388;9.986;2024-03-23T09:23:43;99865.50;;;7.45;100.00
77583;BME280;66726;52.388;9.986;2024-03-23T09:26:09;99852.53;;;7.42;99.26
77583;BME280;66726;52.388;9.986;2024-03-23T09:28:37;99862.28;;;7.34;98.38
77583;BME280;66726;52.388;9.986;2024-03-23T09:31:03;99875.41;;;7.27;98.34
77583;BME280;66726;52.388;9.986;2024-03-23T09:33:30;99865.22;;;7.14;96.94
77583;BME280;66726;52.388;9.986;2024-03-23T09:36:57;99860.84;;;7.05;100.00
77583;BME280;66726;52.388;9.986;2024-03-23T09:39:24;99859.84;;;6.98;97.32
77583;BME280;66726;52.388;9.986;2024-03-23T09:41:50;99871.47;;;7.05;100.00
77583;BME280;66726;52.388;9.986;2024-03-23T09:44:17;99860.53;;;7.08;100.00
77583;BME280;66726;52.388;9.986;2024-03-23T09:46:45;99855.09;;;7.26;100.00
77583;BME280;66726;52.388;9.986;2024-03-23T09:49:11;99855.00;;;7.36;100.00
77583;BME280;66726;52.388;9.986;2024-03-23T09:51:38;99856.53;;;7.54;100.00
77583;BME280;66726;52.388;9.986;2024-03-23T09:54:07;99853.72;;;7.64;99.35
77583;BME280;66726;52.388;9.986;2024-03-23T09:56:34;99848.75;;;7.69;96.45
77583;BME280;66726;52.388;9.986;2024-03-23T09:59:01;99868.19;;;7.53;91.43
77583;BME280;66726;52.388;9.986;2024-03-23T10:01:30;99868.78;;;7.31;89.93
77583;BME280;66726;52.388;9.986;2024-03-23T10:03:56;99870.41;;;7.24;90.17
77583;BME280;66726;52.388;9.986;2024-03-23T10:06:24;99862.00;;;7.03;90.18
77583;BME280;66726;52.388;9.986;2024-03-23T10:08:51;99861.59;;;6.90;89.40
77583;BME280;66726;52.388;9.986;2024-03-23T10:11:21;99857.84;;;6.75;88.63
77583;BME280;66726;52.388;9.986;2024-03-23T10:13:48;99851.91;;;6.81;93.04
77583;BME280;66726;52.388;9.986;2024-03-23T10:16:22;99850.69;;;7.01;96.59
77583;BME280;66726;52.388;9.986;2024-03-23T10:18:49;99852.63;;;7.25;98.09
77583;BME280;66726;52.388;9.986;2024-03-23T10:21:18;99837.56;;;7.49;99.07
77583;BME280;66726;52.388;9.986;2024-03-23T10:23:45;99835.59;;;7.68;98.57
77583;BME280;66726;52.388;9.986;2024-03-23T10:26:21;99830.59;;;7.64;95.82
77583;BME280;66726;52.388;9.986;2024-03-23T10:28:55;99839.59;;;7.63;95.66
77583;BME280;66726;52.388;9.986;2024-03-23T10:31:27;99829.56;;;7.57;89.38
77583;BME280;66726;52.388;9.986;2024-03-23T10:33:53;99830.94;;;7.70;88.83
77583;BME280;66726;52.388;9.986;2024-03-23T10:36:22;99826.78;;;7.91;88.65
77583;BME280;66726;52.388;9.986;2024-03-23T10:38:50;99836.97;;;8.20;90.59
77583;BME280;66726;52.388;9.986;2024-03-23T10:41:18;99844.34;;;8.34;88.97
77583;BME280;66726;52.388;9.986;2024-03-23T10:43:48;99841.19;;;8.39;81.09
77583;BME280;66726;52.388;9.986;2024-03-23T10:46:16;99827.31;;;8.51;79.96
77583;BME280;66726;52.388;9.986;2024-03-23T10:48:44;99832.97;;;8.64;79.96
77583;BME280;66726;52.388;9.986;2024-03-23T10:51:12;99822.28;;;8.73;75.36
77583;BME280;66726;52.388;9.986;2024-03-23T10:53:40;99823.84;;;8.98;75.74
77583;BME280;66726;52.388;9.986;2024-03-23T10:56:10;99827.06;;;8.93;77.07
77583;BME280;66726;52.388;9.986;2024-03-23T10:58:40;99825.03;;;8.87;77.37
77583;BME280;66726;52.388;9.986;2024-03-23T11:01:12;99825.59;;;8.75;74.38
77583;BME280;66726;52.388;9.986;2024-03-23T11:03:45;99837.47;;;8.64;76.13
77583;BME280;66726;52.388;9.986;2024-03-23T11:06:37;99865.16;;;8.31;77.30
77583;BME280;66726;52.388;9.986;2024-03-23T11:09:38;99883.53;;;7.68;81.11
77583;BME280;66726;52.388;9.986;2024-03-23T11:12:26;99890.94;;;7.40;82.73
77583;BME280;66726;52.388;9.986;2024-03-23T11:14:55;99901.81;;;6.87;85.87
77583;BME280;66726;52.388;9.986;2024-03-23T11:17:26;99892.28;;;6.76;88.47
77583;BME280;66726;52.388;9.986;2024-03-23T11:19:58;99887.06;;;6.67;89.62
77583;BME280;66726;52.388;9.986;2024-03-23T11:22:46;99872.34;;;6.80;89.79
77583;BME280;66726;52.388;9.986;2024-03-23T11:25:16;99857.44;;;6.87;90.73
77583;BME280;66726;52.388;9.986;2024-03-23T11:27:44;99868.28;;;6.94;90.88
77583;BME280;66726;52.388;9.986;2024-03-23T11:30:17;99879.25;;;6.99;89.62
77583;BME280;66726;52.388;9.986;2024-03-23T11:32:45;99862.94;;;7.28;91.67
77583;BME280;66726;52.388;9.986;2024-03-23T11:35:27;99882.84;;;7.57;92.71
77583;BME280;66726;52.388;9.986;2024-03-23T11:38:09;99899.16;;;7.54;88.77
77583;BME280;66726;52.388;9.986;2024-03-23T11:40:38;99890.78;;;7.41;88.25
77583;BME280;66726;52.388;9.986;2024-03-23T11:43:07;99879.91;;;7.27;86.46
77583;BME280;66726;52.388;9.986;2024-03-23T11:45:36;99875.41;;;7.19;85.63
77583;BME280;66726;52.388;9.986;2024-03-23T11:48:08;99865.75;;;7.18;87.79
77583;BME280;66726;52.388;9.986;2024-03-23T11:50:41;99875.53;;;7.18;89.30
77583;BME280;66726;52.388;9.986;2024-03-23T11:53:14;99872.03;;;7.17;88.90
77583;BME280;66726;52.388;9.986;2024-03-23T11:55:47;99875.41;;;7.27;90.09
77583;BME280;66726;52.388;9.986;2024-03-23T11:58:16;99862.53;;;7.48;93.19
77583;BME280;66726;52.388;9.986;2024-03-23T12:00:50;99873.81;;;7.42;89.16
77583;BME280;66726;52.388;9.986;2024-03-23T12:03:17;99880.69;;;7.53;91.76
77583;BME280;66726;52.388;9.986;2024-03-23T12:05:49;99885.50;;;7.49;91.79
77583;BME280;66726;52.388;9.986;2024-03-23T12:08:22;99903.06;;;7.34;93.28
77583;BME280;66726;52.388;9.986;2024-03-23T12:10:52;99908.66;;;7.23;94.50
77583;BME280;66726;52.388;9.986;2024-03-23T12:13:20;99901.97;;;7.11;94.63
77583;BME280;66726;52.388;9.986;2024-03-23T12:15:50;99872.41;;;7.22;94.14
77583;BME280;66726;52.388;9.986;2024-03-23T12:18:17;99853.78;;;7.30;98.60
77583;BME280;66726;52.388;9.986;2024-03-23T12:20:44;99842.47;;;7.28;96.37
77583;BME280;66726;52.388;9.986;2024-03-23T12:23:12;99844.81;;;7.31;94.68
77583;BME280;66726;52.388;9.986;2024-03-23T12:25:41;99843.16;;;7.30;96.07
77583;BME280;66726;52.388;9.986;2024-03-23T12:28:07;99843.78;;;7.24;95.07
77583;BME280;66726;52.388;9.986;2024-03-23T12:30:38;99843.94;;;7.14;96.33
77583;BME280;66726;52.388;9.986;2024-03-23T12:33:05;99853.03;;;7.04;93.20
77583;BME280;66726;52.388;9.986;2024-03-23T12:35:33;99859.38;;;7.11;93.70
77583;BME280;66726;52.388;9.986;2024-03-23T12:38:00;99861.56;;;7.16;93.81
77583;BME280;66726;52.388;9.986;2024-03-23T12:40:27;99862.19;;;7.09;90.55
77583;BME280;66726;52.388;9.986;2024-03-23T12:42:55;99861.81;;;7.38;92.66
77583;BME280;66726;52.388;9.986;2024-03-23T12:45:23;99860.91;;;7.63;92.59
77583;BME280;66726;52.388;9.986;2024-03-23T12:47:49;99853.25;;;7.85;93.18
77583;BME280;66726;52.388;9.986;2024-03-23T12:50:18;99854.13;;;7.93;92.70
77583;BME280;66726;52.388;9.986;2024-03-23T12:52:44;99854.28;;;7.92;91.81
77583;BME280;66726;52.388;9.986;2024-03-23T12:55:12;99862.28;;;7.84;92.43
77583;BME280;66726;52.388;9.986;2024-03-23T12:57:38;99854.25;;;7.76;91.29
77583;BME280;66726;52.388;9.986;2024-03-23T13:00:09;99865.06;;;7.66;91.67
77583;BME280;66726;52.388;9.986;2024-03-23T13:02:37;99860.03;;;7.55;92.46
77583;BME280;66726;52.388;9.986;2024-03-23T13:05:06;99855.66;;;7.38;89.56
77583;BME280;66726;52.388;9.986;2024-03-23T13:07:34;99859.63;;;7.34;90.99
77583;BME280;66726;52.388;9.986;2024-03-23T13:10:04;99842.19;;;7.39;92.42
77583;BME280;66726;52.388;9.986;2024-03-23T13:12:30;99857.81;;;7.34;89.11
77583;BME280;66726;52.388;9.986;2024-03-23T13:14:58;99857.34;;;7.39;89.04
77583;BME280;66726;52.388;9.986;2024-03-23T13:17:27;99868.50;;;7.42;86.56
77583;BME280;66726;52.388;9.986;2024-03-23T13:19:54;99866.03;;;7.49;80.61
77583;BME280;66726;52.388;9.986;2024-03-23T13:22:21;99848.84;;;7.43;80.21
77583;BME280;66726;52.388;9.986;2024-03-23T13:24:48;99852.53;;;7.42;80.67
77583;BME280;66726;52.388;9.986;2024-03-23T13:27:15;99856.13;;;7.33;80.54
77583;BME280;66726;52.388;9.986;2024-03-23T13:29:42;99850.19;;;7.47;81.04
77583;BME280;66726;52.388;9.986;2024-03-23T13:32:08;99847.94;;;7.85;79.59
77583;BME280;66726;52.388;9.986;2024-03-23T13:34:37;99834.47;;;8.18;79.44
77583;BME280;66726;52.388;9.986;2024-03-23T13:37:03;99840.69;;;8.35;77.69
77583;BME280;66726;52.388;9.986;2024-03-23T13:39:33;99842.31;;;8.52;75.71
77583;BME280;66726;52.388;9.986;2024-03-23T13:41:59;99837.41;;;8.88;78.61
77583;BME280;66726;52.388;9.986;2024-03-23T13:44:26;99828.06;;;8.92;75.21
77583;BME280;66726;52.388;9.986;2024-03-23T13:46:54;99829.22;;;8.90;75.18
77583;BME280;66726;52.388;9.986;2024-03-23T13:49:28;99828.84;;;9.01;73.91
77583;BME280;66726;52.388;9.986;2024-03-23T13:51:58;99826.16;;;9.09;73.94
77583;BME280;66726;52.388;9.986;2024-03-23T13:54:24;99836.09;;;9.23;73.05
77583;BME280;66726;52.388;9.986;2024-03-23T13:56:52;99832.22;;;9.34;70.66
77583;BME280;66726;52.388;9.986;2024-03-23T13:59:20;99826.66;;;9.43;71.68
77583;BME280;66726;52.388;9.986;2024-03-23T14:01:49;99823.63;;;9.46;71.93